
<gpx xmlns="http://www.topografix.com/GPX/1/1" xmlns:gpxx="http://www.garmin.com/xmlschemas/GpxExtensions/v3" xmlns:xsi="http://www.w3.org/2001/XMLSchema-instance" version="1.1" creator="Adze - http://kobotsw.com/apps/adze" xsi:schemaLocation="http://www.topografix.com/GPX/1/1 http://www.topografix.com/GPX/1/1/gpx.xsd http://www.garmin.com/xmlschemas/GpxExtensions/v3 http://www.garmin.com/xmlschemas/GpxExtensionsv3.xsd">
    <metadata>
        <name>Untitled Document</name>
        <link href="http://www.garmin.com"></link>
        <time>2018-02-04T08:20:48.016Z</time>
    </metadata>
    <wpt lon="101.191602" lat="14.706972">
        <ele>198.000000</ele>
        <time>2015-04-24T08:42:25Z</time>
        <name>Arunvit Resort</name>
        <sym>Lodging</sym>
        <extensions>
            <gpxx:WaypointExtension xmlns:gpxx="http://www.garmin.com/xmlschemas/GpxExtensions/v3">
                <gpxx:DisplayMode>SymbolAndName</gpxx:DisplayMode>
            </gpxx:WaypointExtension>
        </extensions>
    </wpt>
    <wpt lon="101.116963" lat="14.765207">
        <time>2016-10-30T09:30:40Z</time>
        <name>Water Saturday</name>
        <cmt>2089</cmt>
        <desc>2089</desc>
        <sym>Drinking Water</sym>
        <extensions>
            <gpxx:WaypointExtension xmlns:gpxx="http://www.garmin.com/xmlschemas/GpxExtensions/v3">
                <gpxx:DisplayMode>SymbolAndName</gpxx:DisplayMode>
            </gpxx:WaypointExtension>
        </extensions>
    </wpt>
    <trk>
        <name>Saturday</name>
        <extensions>
            <gpxx:TrackExtension xmlns:gpxx="http://www.garmin.com/xmlschemas/GpxExtensions/v3">
                <gpxx:DisplayColor>Red</gpxx:DisplayColor>
            </gpxx:TrackExtension>
        </extensions>
        <trkseg>
            <trkpt lon="101.191043" lat="14.706456">
                <ele>197.210000</ele>
                <time>2016-10-29T05:47:52Z</time>
            </trkpt>
            <trkpt lon="101.191264" lat="14.706370">
                <ele>203.940000</ele>
                <time>2016-10-29T05:54:18Z</time>
            </trkpt>
            <trkpt lon="101.191309" lat="14.706394">
                <ele>196.730000</ele>
                <time>2016-10-29T06:01:31Z</time>
            </trkpt>
            <trkpt lon="101.191262" lat="14.706382">
                <ele>198.170000</ele>
                <time>2016-10-29T06:01:48Z</time>
            </trkpt>
            <trkpt lon="101.191156" lat="14.706091">
                <ele>193.360000</ele>
                <time>2016-10-29T06:02:00Z</time>
            </trkpt>
            <trkpt lon="101.190919" lat="14.705577">
                <ele>192.400000</ele>
                <time>2016-10-29T06:02:21Z</time>
            </trkpt>
            <trkpt lon="101.190850" lat="14.705593">
                <ele>192.880000</ele>
                <time>2016-10-29T06:02:23Z</time>
            </trkpt>
            <trkpt lon="101.190772" lat="14.705632">
                <ele>193.360000</ele>
                <time>2016-10-29T06:02:25Z</time>
            </trkpt>
            <trkpt lon="101.190073" lat="14.706150">
                <ele>193.360000</ele>
                <time>2016-10-29T06:02:44Z</time>
            </trkpt>
            <trkpt lon="101.185906" lat="14.709311">
                <ele>190.480000</ele>
                <time>2016-10-29T06:04:23Z</time>
            </trkpt>
            <trkpt lon="101.185226" lat="14.709993">
                <ele>188.560000</ele>
                <time>2016-10-29T06:04:39Z</time>
            </trkpt>
            <trkpt lon="101.184668" lat="14.709898">
                <ele>188.560000</ele>
                <time>2016-10-29T06:04:50Z</time>
            </trkpt>
            <trkpt lon="101.181166" lat="14.710946">
                <ele>191.920000</ele>
                <time>2016-10-29T06:06:12Z</time>
            </trkpt>
            <trkpt lon="101.179026" lat="14.711378">
                <ele>204.900000</ele>
                <time>2016-10-29T06:07:02Z</time>
            </trkpt>
            <trkpt lon="101.177438" lat="14.711608">
                <ele>202.010000</ele>
                <time>2016-10-29T06:07:36Z</time>
            </trkpt>
            <trkpt lon="101.176667" lat="14.711598">
                <ele>201.530000</ele>
                <time>2016-10-29T06:07:54Z</time>
            </trkpt>
            <trkpt lon="101.175803" lat="14.712066">
                <ele>202.490000</ele>
                <time>2016-10-29T06:08:25Z</time>
            </trkpt>
            <trkpt lon="101.174943" lat="14.712613">
                <ele>203.460000</ele>
                <time>2016-10-29T06:08:58Z</time>
            </trkpt>
            <trkpt lon="101.174662" lat="14.712667">
                <ele>202.980000</ele>
                <time>2016-10-29T06:09:05Z</time>
            </trkpt>
            <trkpt lon="101.173490" lat="14.712694">
                <ele>209.220000</ele>
                <time>2016-10-29T06:09:57Z</time>
            </trkpt>
            <trkpt lon="101.172100" lat="14.712410">
                <ele>222.200000</ele>
                <time>2016-10-29T06:21:06Z</time>
            </trkpt>
            <trkpt lon="101.170652" lat="14.712082">
                <ele>230.850000</ele>
                <time>2016-10-29T06:22:14Z</time>
            </trkpt>
            <trkpt lon="101.169848" lat="14.712068">
                <ele>234.220000</ele>
                <time>2016-10-29T06:22:44Z</time>
            </trkpt>
            <trkpt lon="101.168639" lat="14.712208">
                <ele>236.140000</ele>
                <time>2016-10-29T06:23:15Z</time>
            </trkpt>
            <trkpt lon="101.168035" lat="14.712489">
                <ele>241.430000</ele>
                <time>2016-10-29T06:23:48Z</time>
            </trkpt>
            <trkpt lon="101.167555" lat="14.712914">
                <ele>246.230000</ele>
                <time>2016-10-29T06:24:23Z</time>
            </trkpt>
            <trkpt lon="101.167443" lat="14.713039">
                <ele>249.120000</ele>
                <time>2016-10-29T06:25:18Z</time>
            </trkpt>
            <trkpt lon="101.166427" lat="14.713863">
                <ele>259.210000</ele>
                <time>2016-10-29T06:26:27Z</time>
            </trkpt>
            <trkpt lon="101.166332" lat="14.713901">
                <ele>258.730000</ele>
                <time>2016-10-29T06:26:40Z</time>
            </trkpt>
            <trkpt lon="101.166490" lat="14.716464">
                <ele>270.270000</ele>
                <time>2016-10-29T06:28:25Z</time>
            </trkpt>
            <trkpt lon="101.165700" lat="14.718622">
                <ele>281.800000</ele>
                <time>2016-10-29T06:29:54Z</time>
            </trkpt>
            <trkpt lon="101.165467" lat="14.719148">
                <ele>282.770000</ele>
                <time>2016-10-29T06:30:15Z</time>
            </trkpt>
            <trkpt lon="101.164760" lat="14.720778">
                <ele>291.900000</ele>
                <time>2016-10-29T06:31:24Z</time>
            </trkpt>
            <trkpt lon="101.164644" lat="14.721650">
                <ele>292.380000</ele>
                <time>2016-10-29T06:31:57Z</time>
            </trkpt>
            <trkpt lon="101.164701" lat="14.723605">
                <ele>294.300000</ele>
                <time>2016-10-29T06:32:53Z</time>
            </trkpt>
            <trkpt lon="101.164383" lat="14.724394">
                <ele>302.950000</ele>
                <time>2016-10-29T06:33:29Z</time>
            </trkpt>
            <trkpt lon="101.164040" lat="14.724686">
                <ele>307.760000</ele>
                <time>2016-10-29T06:33:53Z</time>
            </trkpt>
            <trkpt lon="101.164035" lat="14.724703">
                <ele>307.760000</ele>
                <time>2016-10-29T06:33:54Z</time>
            </trkpt>
            <trkpt lon="101.164045" lat="14.724734">
                <ele>307.760000</ele>
                <time>2016-10-29T06:33:56Z</time>
            </trkpt>
            <trkpt lon="101.164148" lat="14.724956">
                <ele>304.880000</ele>
                <time>2016-10-29T06:34:07Z</time>
            </trkpt>
            <trkpt lon="101.164398" lat="14.725393">
                <ele>301.510000</ele>
                <time>2016-10-29T06:34:16Z</time>
            </trkpt>
            <trkpt lon="101.165787" lat="14.726353">
                <ele>302.950000</ele>
                <time>2016-10-29T06:34:59Z</time>
            </trkpt>
            <trkpt lon="101.166395" lat="14.726997">
                <ele>308.720000</ele>
                <time>2016-10-29T06:35:46Z</time>
            </trkpt>
            <trkpt lon="101.168132" lat="14.728057">
                <ele>319.780000</ele>
                <time>2016-10-29T06:37:30Z</time>
            </trkpt>
            <trkpt lon="101.168734" lat="14.728440">
                <ele>317.850000</ele>
                <time>2016-10-29T06:38:00Z</time>
            </trkpt>
            <trkpt lon="101.170069" lat="14.728851">
                <ele>319.300000</ele>
                <time>2016-10-29T06:38:44Z</time>
            </trkpt>
            <trkpt lon="101.170531" lat="14.729919">
                <ele>326.020000</ele>
                <time>2016-10-29T06:39:34Z</time>
            </trkpt>
            <trkpt lon="101.170792" lat="14.730949">
                <ele>331.310000</ele>
                <time>2016-10-29T06:40:28Z</time>
            </trkpt>
            <trkpt lon="101.170788" lat="14.731279">
                <ele>333.230000</ele>
                <time>2016-10-29T06:40:44Z</time>
            </trkpt>
            <trkpt lon="101.170536" lat="14.731581">
                <ele>335.160000</ele>
                <time>2016-10-29T06:41:02Z</time>
            </trkpt>
            <trkpt lon="101.169759" lat="14.733527">
                <ele>342.370000</ele>
                <time>2016-10-29T06:42:42Z</time>
            </trkpt>
            <trkpt lon="101.169693" lat="14.733935">
                <ele>342.850000</ele>
                <time>2016-10-29T06:43:16Z</time>
            </trkpt>
            <trkpt lon="101.170439" lat="14.735973">
                <ele>358.710000</ele>
                <time>2016-10-29T06:45:35Z</time>
            </trkpt>
            <trkpt lon="101.170952" lat="14.736545">
                <ele>364.960000</ele>
                <time>2016-10-29T06:46:16Z</time>
            </trkpt>
            <trkpt lon="101.172079" lat="14.736654">
                <ele>348.130000</ele>
                <time>2016-10-29T06:47:46Z</time>
            </trkpt>
            <trkpt lon="101.172738" lat="14.737037">
                <ele>341.410000</ele>
                <time>2016-10-29T06:48:26Z</time>
            </trkpt>
            <trkpt lon="101.173193" lat="14.737547">
                <ele>338.520000</ele>
                <time>2016-10-29T06:49:06Z</time>
            </trkpt>
            <trkpt lon="101.173402" lat="14.737878">
                <ele>337.080000</ele>
                <time>2016-10-29T06:49:31Z</time>
            </trkpt>
            <trkpt lon="101.173537" lat="14.737925">
                <ele>334.680000</ele>
                <time>2016-10-29T06:50:04Z</time>
            </trkpt>
            <trkpt lon="101.173922" lat="14.738095">
                <ele>336.600000</ele>
                <time>2016-10-29T06:50:37Z</time>
            </trkpt>
            <trkpt lon="101.173408" lat="14.737894">
                <ele>339.960000</ele>
                <time>2016-10-29T06:51:10Z</time>
            </trkpt>
            <trkpt lon="101.173433" lat="14.738411">
                <ele>341.410000</ele>
                <time>2016-10-29T06:52:18Z</time>
            </trkpt>
            <trkpt lon="101.173297" lat="14.739105">
                <ele>342.850000</ele>
                <time>2016-10-29T06:53:40Z</time>
            </trkpt>
            <trkpt lon="101.173151" lat="14.739666">
                <ele>340.920000</ele>
                <time>2016-10-29T06:54:14Z</time>
            </trkpt>
            <trkpt lon="101.173111" lat="14.739829">
                <ele>338.520000</ele>
                <time>2016-10-29T06:54:34Z</time>
            </trkpt>
            <trkpt lon="101.172838" lat="14.740391">
                <ele>336.600000</ele>
                <time>2016-10-29T06:55:02Z</time>
            </trkpt>
            <trkpt lon="101.172636" lat="14.741085">
                <ele>345.250000</ele>
                <time>2016-10-29T06:55:39Z</time>
            </trkpt>
            <trkpt lon="101.172502" lat="14.742036">
                <ele>334.200000</ele>
                <time>2016-10-29T06:56:49Z</time>
            </trkpt>
            <trkpt lon="101.172370" lat="14.742190">
                <ele>330.350000</ele>
                <time>2016-10-29T06:57:06Z</time>
            </trkpt>
            <trkpt lon="101.172281" lat="14.742239">
                <ele>322.180000</ele>
                <time>2016-10-29T06:57:18Z</time>
            </trkpt>
            <trkpt lon="101.171587" lat="14.742682">
                <ele>328.910000</ele>
                <time>2016-10-29T06:58:56Z</time>
            </trkpt>
            <trkpt lon="101.171210" lat="14.742888">
                <ele>325.540000</ele>
                <time>2016-10-29T06:59:35Z</time>
            </trkpt>
            <trkpt lon="101.170853" lat="14.743344">
                <ele>325.540000</ele>
                <time>2016-10-29T07:00:12Z</time>
            </trkpt>
            <trkpt lon="101.170363" lat="14.743934">
                <ele>322.660000</ele>
                <time>2016-10-29T07:00:54Z</time>
            </trkpt>
            <trkpt lon="101.170096" lat="14.744078">
                <ele>330.350000</ele>
                <time>2016-10-29T07:01:38Z</time>
            </trkpt>
            <trkpt lon="101.170017" lat="14.744149">
                <ele>330.350000</ele>
                <time>2016-10-29T07:01:49Z</time>
            </trkpt>
            <trkpt lon="101.167947" lat="14.744438">
                <ele>341.890000</ele>
                <time>2016-10-29T07:05:47Z</time>
            </trkpt>
            <trkpt lon="101.167484" lat="14.744654">
                <ele>352.460000</ele>
                <time>2016-10-29T07:07:23Z</time>
            </trkpt>
            <trkpt lon="101.167437" lat="14.744829">
                <ele>351.980000</ele>
                <time>2016-10-29T07:07:40Z</time>
            </trkpt>
            <trkpt lon="101.167414" lat="14.745746">
                <ele>349.580000</ele>
                <time>2016-10-29T07:08:09Z</time>
            </trkpt>
            <trkpt lon="101.167148" lat="14.746757">
                <ele>347.650000</ele>
                <time>2016-10-29T07:08:38Z</time>
            </trkpt>
            <trkpt lon="101.166771" lat="14.747261">
                <ele>344.770000</ele>
                <time>2016-10-29T07:08:54Z</time>
            </trkpt>
            <trkpt lon="101.166171" lat="14.747488">
                <ele>346.690000</ele>
                <time>2016-10-29T07:09:16Z</time>
            </trkpt>
            <trkpt lon="101.165832" lat="14.747466">
                <ele>349.100000</ele>
                <time>2016-10-29T07:09:35Z</time>
            </trkpt>
            <trkpt lon="101.165340" lat="14.747864">
                <ele>353.420000</ele>
                <time>2016-10-29T07:10:06Z</time>
            </trkpt>
            <trkpt lon="101.164855" lat="14.748196">
                <ele>351.980000</ele>
                <time>2016-10-29T07:10:36Z</time>
            </trkpt>
            <trkpt lon="101.165990" lat="14.748836">
                <ele>345.730000</ele>
                <time>2016-10-29T07:10:59Z</time>
            </trkpt>
            <trkpt lon="101.166785" lat="14.749369">
                <ele>342.370000</ele>
                <time>2016-10-29T07:11:14Z</time>
            </trkpt>
            <trkpt lon="101.168898" lat="14.751444">
                <ele>348.130000</ele>
                <time>2016-10-29T07:12:35Z</time>
            </trkpt>
            <trkpt lon="101.169228" lat="14.752168">
                <ele>351.500000</ele>
                <time>2016-10-29T07:13:03Z</time>
            </trkpt>
            <trkpt lon="101.169455" lat="14.753424">
                <ele>344.290000</ele>
                <time>2016-10-29T07:13:29Z</time>
            </trkpt>
            <trkpt lon="101.169901" lat="14.753847">
                <ele>340.440000</ele>
                <time>2016-10-29T07:13:41Z</time>
            </trkpt>
            <trkpt lon="101.171090" lat="14.754483">
                <ele>337.560000</ele>
                <time>2016-10-29T07:14:10Z</time>
            </trkpt>
            <trkpt lon="101.171911" lat="14.754507">
                <ele>334.680000</ele>
                <time>2016-10-29T07:14:29Z</time>
            </trkpt>
            <trkpt lon="101.173266" lat="14.757072">
                <ele>328.910000</ele>
                <time>2016-10-29T07:15:38Z</time>
            </trkpt>
            <trkpt lon="101.174095" lat="14.758036">
                <ele>326.990000</ele>
                <time>2016-10-29T07:16:26Z</time>
            </trkpt>
            <trkpt lon="101.174196" lat="14.758272">
                <ele>326.020000</ele>
                <time>2016-10-29T07:16:32Z</time>
            </trkpt>
            <trkpt lon="101.174291" lat="14.758955">
                <ele>325.060000</ele>
                <time>2016-10-29T07:16:46Z</time>
            </trkpt>
            <trkpt lon="101.174191" lat="14.759413">
                <ele>321.700000</ele>
                <time>2016-10-29T07:16:59Z</time>
            </trkpt>
            <trkpt lon="101.173579" lat="14.759908">
                <ele>313.530000</ele>
                <time>2016-10-29T07:17:17Z</time>
            </trkpt>
            <trkpt lon="101.173477" lat="14.760186">
                <ele>311.120000</ele>
                <time>2016-10-29T07:17:23Z</time>
            </trkpt>
            <trkpt lon="101.173487" lat="14.760294">
                <ele>310.640000</ele>
                <time>2016-10-29T07:17:25Z</time>
            </trkpt>
            <trkpt lon="101.173700" lat="14.761024">
                <ele>306.800000</ele>
                <time>2016-10-29T07:17:38Z</time>
            </trkpt>
            <trkpt lon="101.175251" lat="14.762866">
                <ele>301.990000</ele>
                <time>2016-10-29T07:18:37Z</time>
            </trkpt>
            <trkpt lon="101.175654" lat="14.763046">
                <ele>304.390000</ele>
                <time>2016-10-29T07:19:03Z</time>
            </trkpt>
            <trkpt lon="101.175932" lat="14.763083">
                <ele>307.280000</ele>
                <time>2016-10-29T07:19:32Z</time>
            </trkpt>
            <trkpt lon="101.176598" lat="14.763128">
                <ele>300.070000</ele>
                <time>2016-10-29T07:21:08Z</time>
            </trkpt>
            <trkpt lon="101.176908" lat="14.763209">
                <ele>292.380000</ele>
                <time>2016-10-29T07:21:48Z</time>
            </trkpt>
            <trkpt lon="101.177270" lat="14.763586">
                <ele>283.730000</ele>
                <time>2016-10-29T07:22:46Z</time>
            </trkpt>
            <trkpt lon="101.177321" lat="14.763937">
                <ele>277.480000</ele>
                <time>2016-10-29T07:23:31Z</time>
            </trkpt>
            <trkpt lon="101.177318" lat="14.764104">
                <ele>283.730000</ele>
                <time>2016-10-29T07:23:51Z</time>
            </trkpt>
            <trkpt lon="101.177338" lat="14.764192">
                <ele>283.250000</ele>
                <time>2016-10-29T07:24:08Z</time>
            </trkpt>
            <trkpt lon="101.176915" lat="14.764639">
                <ele>282.280000</ele>
                <time>2016-10-29T07:25:56Z</time>
            </trkpt>
            <trkpt lon="101.176794" lat="14.764682">
                <ele>289.490000</ele>
                <time>2016-10-29T07:26:12Z</time>
            </trkpt>
            <trkpt lon="101.176667" lat="14.764734">
                <ele>290.940000</ele>
                <time>2016-10-29T07:26:28Z</time>
            </trkpt>
            <trkpt lon="101.176558" lat="14.764789">
                <ele>293.820000</ele>
                <time>2016-10-29T07:26:43Z</time>
            </trkpt>
            <trkpt lon="101.176424" lat="14.764816">
                <ele>296.700000</ele>
                <time>2016-10-29T07:26:58Z</time>
            </trkpt>
            <trkpt lon="101.175915" lat="14.765004">
                <ele>289.970000</ele>
                <time>2016-10-29T07:28:00Z</time>
            </trkpt>
            <trkpt lon="101.174790" lat="14.765013">
                <ele>274.590000</ele>
                <time>2016-10-29T07:29:29Z</time>
            </trkpt>
            <trkpt lon="101.174686" lat="14.765245">
                <ele>280.840000</ele>
                <time>2016-10-29T07:29:47Z</time>
            </trkpt>
            <trkpt lon="101.174629" lat="14.765419">
                <ele>277.960000</ele>
                <time>2016-10-29T07:29:58Z</time>
            </trkpt>
            <trkpt lon="101.174540" lat="14.765543">
                <ele>275.560000</ele>
                <time>2016-10-29T07:30:11Z</time>
            </trkpt>
            <trkpt lon="101.174005" lat="14.765986">
                <ele>275.070000</ele>
                <time>2016-10-29T07:30:47Z</time>
            </trkpt>
            <trkpt lon="101.173644" lat="14.766290">
                <ele>281.320000</ele>
                <time>2016-10-29T07:31:03Z</time>
            </trkpt>
            <trkpt lon="101.173091" lat="14.766608">
                <ele>285.650000</ele>
                <time>2016-10-29T07:31:28Z</time>
            </trkpt>
            <trkpt lon="101.172889" lat="14.766742">
                <ele>286.610000</ele>
                <time>2016-10-29T07:31:38Z</time>
            </trkpt>
            <trkpt lon="101.172763" lat="14.766853">
                <ele>283.730000</ele>
                <time>2016-10-29T07:31:45Z</time>
            </trkpt>
            <trkpt lon="101.172681" lat="14.767054">
                <ele>278.920000</ele>
                <time>2016-10-29T07:32:01Z</time>
            </trkpt>
            <trkpt lon="101.172622" lat="14.767350">
                <ele>276.520000</ele>
                <time>2016-10-29T07:32:21Z</time>
            </trkpt>
            <trkpt lon="101.172747" lat="14.767587">
                <ele>279.880000</ele>
                <time>2016-10-29T07:32:33Z</time>
            </trkpt>
            <trkpt lon="101.172780" lat="14.767678">
                <ele>279.880000</ele>
                <time>2016-10-29T07:32:38Z</time>
            </trkpt>
            <trkpt lon="101.172706" lat="14.768047">
                <ele>277.000000</ele>
                <time>2016-10-29T07:33:02Z</time>
            </trkpt>
            <trkpt lon="101.172327" lat="14.768604">
                <ele>284.210000</ele>
                <time>2016-10-29T07:33:41Z</time>
            </trkpt>
            <trkpt lon="101.171973" lat="14.768777">
                <ele>278.920000</ele>
                <time>2016-10-29T07:34:10Z</time>
            </trkpt>
            <trkpt lon="101.171833" lat="14.768846">
                <ele>268.830000</ele>
                <time>2016-10-29T07:34:23Z</time>
            </trkpt>
            <trkpt lon="101.171480" lat="14.768951">
                <ele>249.120000</ele>
                <time>2016-10-29T07:35:10Z</time>
            </trkpt>
            <trkpt lon="101.171096" lat="14.769299">
                <ele>243.830000</ele>
                <time>2016-10-29T07:35:36Z</time>
            </trkpt>
            <trkpt lon="101.170987" lat="14.769421">
                <ele>242.870000</ele>
                <time>2016-10-29T07:35:43Z</time>
            </trkpt>
            <trkpt lon="101.170574" lat="14.769886">
                <ele>250.560000</ele>
                <time>2016-10-29T07:36:06Z</time>
            </trkpt>
            <trkpt lon="101.170347" lat="14.770006">
                <ele>251.040000</ele>
                <time>2016-10-29T07:36:19Z</time>
            </trkpt>
            <trkpt lon="101.170220" lat="14.770062">
                <ele>249.600000</ele>
                <time>2016-10-29T07:36:27Z</time>
            </trkpt>
            <trkpt lon="101.170131" lat="14.770109">
                <ele>244.790000</ele>
                <time>2016-10-29T07:36:41Z</time>
            </trkpt>
            <trkpt lon="101.170025" lat="14.770269">
                <ele>238.060000</ele>
                <time>2016-10-29T07:37:13Z</time>
            </trkpt>
            <trkpt lon="101.169914" lat="14.771404">
                <ele>217.880000</ele>
                <time>2016-10-29T07:40:52Z</time>
            </trkpt>
            <trkpt lon="101.169942" lat="14.771501">
                <ele>213.550000</ele>
                <time>2016-10-29T07:41:12Z</time>
            </trkpt>
            <trkpt lon="101.169926" lat="14.771614">
                <ele>204.420000</ele>
                <time>2016-10-29T07:41:29Z</time>
            </trkpt>
            <trkpt lon="101.169910" lat="14.771607">
                <ele>201.530000</ele>
                <time>2016-10-29T07:41:43Z</time>
            </trkpt>
            <trkpt lon="101.169917" lat="14.771626">
                <ele>200.570000</ele>
                <time>2016-10-29T07:41:48Z</time>
            </trkpt>
            <trkpt lon="101.169670" lat="14.771926">
                <ele>194.320000</ele>
                <time>2016-10-29T07:43:17Z</time>
            </trkpt>
            <trkpt lon="101.169072" lat="14.772687">
                <ele>206.340000</ele>
                <time>2016-10-29T07:44:27Z</time>
            </trkpt>
            <trkpt lon="101.169002" lat="14.772719">
                <ele>206.820000</ele>
                <time>2016-10-29T07:44:35Z</time>
            </trkpt>
            <trkpt lon="101.168933" lat="14.772702">
                <ele>204.420000</ele>
                <time>2016-10-29T07:44:48Z</time>
            </trkpt>
            <trkpt lon="101.169050" lat="14.772756">
                <ele>199.130000</ele>
                <time>2016-10-29T07:45:33Z</time>
            </trkpt>
            <trkpt lon="101.168994" lat="14.772822">
                <ele>195.770000</ele>
                <time>2016-10-29T07:45:56Z</time>
            </trkpt>
            <trkpt lon="101.168800" lat="14.772975">
                <ele>202.490000</ele>
                <time>2016-10-29T07:46:14Z</time>
            </trkpt>
            <trkpt lon="101.168690" lat="14.773154">
                <ele>201.530000</ele>
                <time>2016-10-29T07:46:25Z</time>
            </trkpt>
            <trkpt lon="101.168589" lat="14.773554">
                <ele>204.900000</ele>
                <time>2016-10-29T07:46:48Z</time>
            </trkpt>
            <trkpt lon="101.168208" lat="14.774147">
                <ele>231.330000</ele>
                <time>2016-10-29T07:47:53Z</time>
            </trkpt>
            <trkpt lon="101.168022" lat="14.774406">
                <ele>218.840000</ele>
                <time>2016-10-29T07:48:21Z</time>
            </trkpt>
            <trkpt lon="101.168026" lat="14.774631">
                <ele>229.410000</ele>
                <time>2016-10-29T07:48:49Z</time>
            </trkpt>
            <trkpt lon="101.168077" lat="14.774975">
                <ele>236.620000</ele>
                <time>2016-10-29T07:49:29Z</time>
            </trkpt>
            <trkpt lon="101.167987" lat="14.775131">
                <ele>234.700000</ele>
                <time>2016-10-29T07:49:50Z</time>
            </trkpt>
            <trkpt lon="101.167939" lat="14.775254">
                <ele>227.010000</ele>
                <time>2016-10-29T07:49:58Z</time>
            </trkpt>
            <trkpt lon="101.167868" lat="14.775288">
                <ele>224.120000</ele>
                <time>2016-10-29T07:50:10Z</time>
            </trkpt>
            <trkpt lon="101.167609" lat="14.776118">
                <ele>196.730000</ele>
                <time>2016-10-29T07:51:47Z</time>
            </trkpt>
            <trkpt lon="101.167010" lat="14.777227">
                <ele>185.670000</ele>
                <time>2016-10-29T07:54:10Z</time>
            </trkpt>
            <trkpt lon="101.166261" lat="14.777726">
                <ele>197.690000</ele>
                <time>2016-10-29T07:55:11Z</time>
            </trkpt>
            <trkpt lon="101.165909" lat="14.778121">
                <ele>191.920000</ele>
                <time>2016-10-29T07:56:13Z</time>
            </trkpt>
            <trkpt lon="101.165353" lat="14.778331">
                <ele>202.980000</ele>
                <time>2016-10-29T07:57:14Z</time>
            </trkpt>
            <trkpt lon="101.165079" lat="14.778447">
                <ele>204.420000</ele>
                <time>2016-10-29T07:57:38Z</time>
            </trkpt>
            <trkpt lon="101.164665" lat="14.778761">
                <ele>223.640000</ele>
                <time>2016-10-29T07:58:04Z</time>
            </trkpt>
            <trkpt lon="101.164456" lat="14.778934">
                <ele>228.930000</ele>
                <time>2016-10-29T07:58:16Z</time>
            </trkpt>
            <trkpt lon="101.164259" lat="14.779112">
                <ele>227.490000</ele>
                <time>2016-10-29T07:58:28Z</time>
            </trkpt>
            <trkpt lon="101.164219" lat="14.779188">
                <ele>227.970000</ele>
                <time>2016-10-29T07:58:33Z</time>
            </trkpt>
            <trkpt lon="101.164166" lat="14.779594">
                <ele>252.000000</ele>
                <time>2016-10-29T07:59:03Z</time>
            </trkpt>
            <trkpt lon="101.164165" lat="14.779840">
                <ele>254.890000</ele>
                <time>2016-10-29T07:59:17Z</time>
            </trkpt>
            <trkpt lon="101.163226" lat="14.781805">
                <ele>208.740000</ele>
                <time>2016-10-29T08:02:16Z</time>
            </trkpt>
            <trkpt lon="101.163092" lat="14.781970">
                <ele>207.300000</ele>
                <time>2016-10-29T08:02:29Z</time>
            </trkpt>
            <trkpt lon="101.162844" lat="14.781953">
                <ele>195.770000</ele>
                <time>2016-10-29T08:02:54Z</time>
            </trkpt>
            <trkpt lon="101.162355" lat="14.782209">
                <ele>184.230000</ele>
                <time>2016-10-29T08:04:02Z</time>
            </trkpt>
            <trkpt lon="101.161968" lat="14.782519">
                <ele>179.420000</ele>
                <time>2016-10-29T08:04:33Z</time>
            </trkpt>
            <trkpt lon="101.161783" lat="14.782560">
                <ele>175.580000</ele>
                <time>2016-10-29T08:04:59Z</time>
            </trkpt>
            <trkpt lon="101.161457" lat="14.782844">
                <ele>155.390000</ele>
                <time>2016-10-29T08:06:14Z</time>
            </trkpt>
            <trkpt lon="101.161263" lat="14.783497">
                <ele>158.750000</ele>
                <time>2016-10-29T08:06:48Z</time>
            </trkpt>
            <trkpt lon="101.160827" lat="14.784038">
                <ele>165.000000</ele>
                <time>2016-10-29T08:08:42Z</time>
            </trkpt>
            <trkpt lon="101.160764" lat="14.784375">
                <ele>166.450000</ele>
                <time>2016-10-29T08:09:17Z</time>
            </trkpt>
            <trkpt lon="101.160466" lat="14.784579">
                <ele>167.410000</ele>
                <time>2016-10-29T08:09:57Z</time>
            </trkpt>
            <trkpt lon="101.160272" lat="14.784613">
                <ele>163.560000</ele>
                <time>2016-10-29T08:10:20Z</time>
            </trkpt>
            <trkpt lon="101.159976" lat="14.785009">
                <ele>162.600000</ele>
                <time>2016-10-29T08:10:46Z</time>
            </trkpt>
            <trkpt lon="101.159507" lat="14.785430">
                <ele>163.080000</ele>
                <time>2016-10-29T08:11:14Z</time>
            </trkpt>
            <trkpt lon="101.159136" lat="14.786081">
                <ele>163.080000</ele>
                <time>2016-10-29T08:11:44Z</time>
            </trkpt>
            <trkpt lon="101.158874" lat="14.786429">
                <ele>165.480000</ele>
                <time>2016-10-29T08:11:58Z</time>
            </trkpt>
            <trkpt lon="101.158619" lat="14.786650">
                <ele>158.750000</ele>
                <time>2016-10-29T08:12:25Z</time>
            </trkpt>
            <trkpt lon="101.158265" lat="14.786791">
                <ele>158.750000</ele>
                <time>2016-10-29T08:12:49Z</time>
            </trkpt>
            <trkpt lon="101.158153" lat="14.786823">
                <ele>155.870000</ele>
                <time>2016-10-29T08:12:58Z</time>
            </trkpt>
            <trkpt lon="101.157948" lat="14.786981">
                <ele>153.950000</ele>
                <time>2016-10-29T08:13:21Z</time>
            </trkpt>
            <trkpt lon="101.157572" lat="14.787161">
                <ele>152.990000</ele>
                <time>2016-10-29T08:13:43Z</time>
            </trkpt>
            <trkpt lon="101.157222" lat="14.787281">
                <ele>149.620000</ele>
                <time>2016-10-29T08:14:05Z</time>
            </trkpt>
            <trkpt lon="101.156947" lat="14.787130">
                <ele>144.340000</ele>
                <time>2016-10-29T08:14:45Z</time>
            </trkpt>
            <trkpt lon="101.156785" lat="14.786722">
                <ele>133.760000</ele>
                <time>2016-10-29T08:15:31Z</time>
            </trkpt>
            <trkpt lon="101.156601" lat="14.786628">
                <ele>133.760000</ele>
                <time>2016-10-29T08:15:53Z</time>
            </trkpt>
            <trkpt lon="101.156001" lat="14.786708">
                <ele>134.240000</ele>
                <time>2016-10-29T08:16:18Z</time>
            </trkpt>
            <trkpt lon="101.155172" lat="14.786743">
                <ele>134.720000</ele>
                <time>2016-10-29T08:16:49Z</time>
            </trkpt>
            <trkpt lon="101.152774" lat="14.788024">
                <ele>128.950000</ele>
                <time>2016-10-29T08:18:53Z</time>
            </trkpt>
            <trkpt lon="101.152604" lat="14.788011">
                <ele>127.510000</ele>
                <time>2016-10-29T08:19:03Z</time>
            </trkpt>
            <trkpt lon="101.152501" lat="14.787761">
                <ele>123.190000</ele>
                <time>2016-10-29T08:19:35Z</time>
            </trkpt>
            <trkpt lon="101.152208" lat="14.787946">
                <ele>132.320000</ele>
                <time>2016-10-29T08:21:44Z</time>
            </trkpt>
            <trkpt lon="101.151617" lat="14.788723">
                <ele>127.030000</ele>
                <time>2016-10-29T08:22:22Z</time>
            </trkpt>
            <trkpt lon="101.151012" lat="14.789253">
                <ele>123.670000</ele>
                <time>2016-10-29T08:22:48Z</time>
            </trkpt>
            <trkpt lon="101.150143" lat="14.789832">
                <ele>121.260000</ele>
                <time>2016-10-29T08:23:16Z</time>
            </trkpt>
            <trkpt lon="101.147623" lat="14.791350">
                <ele>94.830000</ele>
                <time>2016-10-29T08:25:14Z</time>
            </trkpt>
            <trkpt lon="101.146576" lat="14.793592">
                <ele>92.900000</ele>
                <time>2016-10-29T08:27:01Z</time>
            </trkpt>
            <trkpt lon="101.146188" lat="14.794175">
                <ele>90.980000</ele>
                <time>2016-10-29T08:27:40Z</time>
            </trkpt>
            <trkpt lon="101.146166" lat="14.794204">
                <ele>90.020000</ele>
                <time>2016-10-29T08:27:53Z</time>
            </trkpt>
            <trkpt lon="101.146139" lat="14.794280">
                <ele>81.850000</ele>
                <time>2016-10-29T08:28:07Z</time>
            </trkpt>
            <trkpt lon="101.146222" lat="14.794107">
                <ele>80.890000</ele>
                <time>2016-10-29T08:28:42Z</time>
            </trkpt>
            <trkpt lon="101.145680" lat="14.793785">
                <ele>88.100000</ele>
                <time>2016-10-29T08:29:44Z</time>
            </trkpt>
            <trkpt lon="101.145488" lat="14.793790">
                <ele>91.460000</ele>
                <time>2016-10-29T08:30:18Z</time>
            </trkpt>
            <trkpt lon="101.145227" lat="14.794090">
                <ele>94.830000</ele>
                <time>2016-10-29T08:33:07Z</time>
            </trkpt>
            <trkpt lon="101.145269" lat="14.793999">
                <ele>93.390000</ele>
                <time>2016-10-29T08:33:26Z</time>
            </trkpt>
            <trkpt lon="101.145483" lat="14.793745">
                <ele>94.350000</ele>
                <time>2016-10-29T08:51:07Z</time>
            </trkpt>
            <trkpt lon="101.145598" lat="14.793367">
                <ele>91.940000</ele>
                <time>2016-10-29T08:53:38Z</time>
            </trkpt>
            <trkpt lon="101.145700" lat="14.792913">
                <ele>91.940000</ele>
                <time>2016-10-29T08:54:07Z</time>
            </trkpt>
            <trkpt lon="101.145414" lat="14.792643">
                <ele>97.710000</ele>
                <time>2016-10-29T08:54:49Z</time>
            </trkpt>
            <trkpt lon="101.145402" lat="14.792195">
                <ele>99.630000</ele>
                <time>2016-10-29T08:55:36Z</time>
            </trkpt>
            <trkpt lon="101.145024" lat="14.792145">
                <ele>110.210000</ele>
                <time>2016-10-29T08:56:18Z</time>
            </trkpt>
            <trkpt lon="101.144320" lat="14.792105">
                <ele>121.260000</ele>
                <time>2016-10-29T08:57:40Z</time>
            </trkpt>
            <trkpt lon="101.144004" lat="14.792048">
                <ele>123.190000</ele>
                <time>2016-10-29T08:58:12Z</time>
            </trkpt>
            <trkpt lon="101.143902" lat="14.792048">
                <ele>127.510000</ele>
                <time>2016-10-29T08:58:27Z</time>
            </trkpt>
            <trkpt lon="101.143797" lat="14.791975">
                <ele>127.030000</ele>
                <time>2016-10-29T08:58:41Z</time>
            </trkpt>
            <trkpt lon="101.143569" lat="14.791763">
                <ele>137.130000</ele>
                <time>2016-10-29T08:59:25Z</time>
            </trkpt>
            <trkpt lon="101.143317" lat="14.791812">
                <ele>150.580000</ele>
                <time>2016-10-29T08:59:53Z</time>
            </trkpt>
            <trkpt lon="101.143161" lat="14.791852">
                <ele>152.030000</ele>
                <time>2016-10-29T09:00:09Z</time>
            </trkpt>
            <trkpt lon="101.142685" lat="14.792009">
                <ele>149.620000</ele>
                <time>2016-10-29T09:00:41Z</time>
            </trkpt>
            <trkpt lon="101.141208" lat="14.792423">
                <ele>124.630000</ele>
                <time>2016-10-29T09:02:50Z</time>
            </trkpt>
            <trkpt lon="101.140630" lat="14.792425">
                <ele>118.860000</ele>
                <time>2016-10-29T09:03:15Z</time>
            </trkpt>
            <trkpt lon="101.140043" lat="14.792578">
                <ele>115.500000</ele>
                <time>2016-10-29T09:03:37Z</time>
            </trkpt>
            <trkpt lon="101.138929" lat="14.793102">
                <ele>113.570000</ele>
                <time>2016-10-29T09:04:30Z</time>
            </trkpt>
            <trkpt lon="101.138183" lat="14.792702">
                <ele>107.320000</ele>
                <time>2016-10-29T09:05:08Z</time>
            </trkpt>
            <trkpt lon="101.138054" lat="14.792613">
                <ele>104.920000</ele>
                <time>2016-10-29T09:05:15Z</time>
            </trkpt>
            <trkpt lon="101.137951" lat="14.792550">
                <ele>100.110000</ele>
                <time>2016-10-29T09:05:28Z</time>
            </trkpt>
            <trkpt lon="101.137843" lat="14.792540">
                <ele>97.710000</ele>
                <time>2016-10-29T09:05:38Z</time>
            </trkpt>
            <trkpt lon="101.136493" lat="14.791584">
                <ele>84.730000</ele>
                <time>2016-10-29T09:06:49Z</time>
            </trkpt>
            <trkpt lon="101.134558" lat="14.791193">
                <ele>80.890000</ele>
                <time>2016-10-29T09:07:59Z</time>
            </trkpt>
            <trkpt lon="101.133998" lat="14.791041">
                <ele>77.520000</ele>
                <time>2016-10-29T09:08:15Z</time>
            </trkpt>
            <trkpt lon="101.133700" lat="14.790806">
                <ele>75.600000</ele>
                <time>2016-10-29T09:08:27Z</time>
            </trkpt>
            <trkpt lon="101.134204" lat="14.788914">
                <ele>87.620000</ele>
                <time>2016-10-29T09:10:11Z</time>
            </trkpt>
            <trkpt lon="101.134460" lat="14.788415">
                <ele>88.580000</ele>
                <time>2016-10-29T09:10:40Z</time>
            </trkpt>
            <trkpt lon="101.134289" lat="14.788241">
                <ele>89.060000</ele>
                <time>2016-10-29T09:10:53Z</time>
            </trkpt>
            <trkpt lon="101.133647" lat="14.788008">
                <ele>86.180000</ele>
                <time>2016-10-29T09:11:24Z</time>
            </trkpt>
            <trkpt lon="101.133214" lat="14.787967">
                <ele>85.210000</ele>
                <time>2016-10-29T09:11:38Z</time>
            </trkpt>
            <trkpt lon="101.132596" lat="14.788400">
                <ele>81.850000</ele>
                <time>2016-10-29T09:12:07Z</time>
            </trkpt>
            <trkpt lon="101.132127" lat="14.788552">
                <ele>83.770000</ele>
                <time>2016-10-29T09:12:21Z</time>
            </trkpt>
            <trkpt lon="101.128840" lat="14.789025">
                <ele>93.390000</ele>
                <time>2016-10-29T09:15:16Z</time>
            </trkpt>
            <trkpt lon="101.128382" lat="14.789246">
                <ele>94.350000</ele>
                <time>2016-10-29T09:15:48Z</time>
            </trkpt>
            <trkpt lon="101.127096" lat="14.789878">
                <ele>85.210000</ele>
                <time>2016-10-29T09:16:37Z</time>
            </trkpt>
            <trkpt lon="101.126357" lat="14.790016">
                <ele>87.140000</ele>
                <time>2016-10-29T09:17:07Z</time>
            </trkpt>
            <trkpt lon="101.125724" lat="14.789909">
                <ele>82.810000</ele>
                <time>2016-10-29T09:17:40Z</time>
            </trkpt>
            <trkpt lon="101.124762" lat="14.789669">
                <ele>72.240000</ele>
                <time>2016-10-29T09:18:35Z</time>
            </trkpt>
            <trkpt lon="101.124437" lat="14.789289">
                <ele>70.790000</ele>
                <time>2016-10-29T09:18:49Z</time>
            </trkpt>
            <trkpt lon="101.123979" lat="14.788346">
                <ele>67.430000</ele>
                <time>2016-10-29T09:19:17Z</time>
            </trkpt>
            <trkpt lon="101.123179" lat="14.787741">
                <ele>76.560000</ele>
                <time>2016-10-29T09:20:14Z</time>
            </trkpt>
            <trkpt lon="101.122885" lat="14.787482">
                <ele>76.080000</ele>
                <time>2016-10-29T09:20:31Z</time>
            </trkpt>
            <trkpt lon="101.121333" lat="14.786052">
                <ele>60.220000</ele>
                <time>2016-10-29T09:21:50Z</time>
            </trkpt>
            <trkpt lon="101.120794" lat="14.786453">
                <ele>59.260000</ele>
                <time>2016-10-29T09:22:44Z</time>
            </trkpt>
            <trkpt lon="101.120300" lat="14.786516">
                <ele>62.140000</ele>
                <time>2016-10-29T09:23:09Z</time>
            </trkpt>
            <trkpt lon="101.118562" lat="14.786496">
                <ele>60.700000</ele>
                <time>2016-10-29T09:24:08Z</time>
            </trkpt>
            <trkpt lon="101.117130" lat="14.786442">
                <ele>60.700000</ele>
                <time>2016-10-29T09:24:55Z</time>
            </trkpt>
            <trkpt lon="101.117241" lat="14.780880">
                <ele>74.160000</ele>
                <time>2016-10-29T09:27:39Z</time>
            </trkpt>
            <trkpt lon="101.117337" lat="14.777116">
                <ele>81.850000</ele>
                <time>2016-10-29T09:29:14Z</time>
            </trkpt>
            <trkpt lon="101.117399" lat="14.774704">
                <ele>81.370000</ele>
                <time>2016-10-29T09:30:11Z</time>
            </trkpt>
            <trkpt lon="101.117462" lat="14.772109">
                <ele>85.690000</ele>
                <time>2016-10-29T09:31:08Z</time>
            </trkpt>
            <trkpt lon="101.117327" lat="14.770439">
                <ele>89.540000</ele>
                <time>2016-10-29T09:31:49Z</time>
            </trkpt>
            <trkpt lon="101.117186" lat="14.769251">
                <ele>94.350000</ele>
                <time>2016-10-29T09:32:28Z</time>
            </trkpt>
            <trkpt lon="101.117114" lat="14.768625">
                <ele>95.790000</ele>
                <time>2016-10-29T09:32:46Z</time>
            </trkpt>
            <trkpt lon="101.117036" lat="14.767285">
                <ele>96.750000</ele>
                <time>2016-10-29T09:33:17Z</time>
            </trkpt>
            <trkpt lon="101.116891" lat="14.763854">
                <ele>112.500000</ele>
                <time>2016-10-29T08:35:08Z</time>
            </trkpt>
            <trkpt lon="101.116902" lat="14.762684">
                <ele>113.100000</ele>
                <time>2016-10-29T08:35:35Z</time>
            </trkpt>
            <trkpt lon="101.116993" lat="14.762084">
                <ele>112.800000</ele>
                <time>2016-10-29T08:35:47Z</time>
            </trkpt>
            <trkpt lon="101.117348" lat="14.760872">
                <ele>115.000000</ele>
                <time>2016-10-29T08:36:17Z</time>
            </trkpt>
            <trkpt lon="101.118003" lat="14.761038">
                <ele>115.200000</ele>
                <time>2016-10-29T08:39:43Z</time>
            </trkpt>
            <trkpt lon="101.118120" lat="14.761064">
                <ele>114.800000</ele>
                <time>2016-10-29T08:39:45Z</time>
            </trkpt>
            <trkpt lon="101.121365" lat="14.761845">
                <ele>116.200000</ele>
                <time>2016-10-29T08:40:47Z</time>
            </trkpt>
            <trkpt lon="101.121752" lat="14.762197">
                <ele>116.200000</ele>
                <time>2016-10-29T08:40:58Z</time>
            </trkpt>
            <trkpt lon="101.121950" lat="14.762277">
                <ele>116.400000</ele>
                <time>2016-10-29T08:41:03Z</time>
            </trkpt>
            <trkpt lon="101.124726" lat="14.762467">
                <ele>127.000000</ele>
                <time>2016-10-29T08:42:25Z</time>
            </trkpt>
            <trkpt lon="101.125195" lat="14.762495">
                <ele>126.300000</ele>
                <time>2016-10-29T08:42:34Z</time>
            </trkpt>
            <trkpt lon="101.126983" lat="14.762354">
                <ele>127.200000</ele>
                <time>2016-10-29T08:43:07Z</time>
            </trkpt>
            <trkpt lon="101.128097" lat="14.762080">
                <ele>130.200000</ele>
                <time>2016-10-29T08:43:38Z</time>
            </trkpt>
            <trkpt lon="101.128500" lat="14.761957">
                <ele>129.500000</ele>
                <time>2016-10-29T08:43:46Z</time>
            </trkpt>
            <trkpt lon="101.130644" lat="14.761660">
                <ele>147.200000</ele>
                <time>2016-10-29T08:44:53Z</time>
            </trkpt>
            <trkpt lon="101.131570" lat="14.761517">
                <ele>142.500000</ele>
                <time>2016-10-29T08:45:19Z</time>
            </trkpt>
            <trkpt lon="101.133584" lat="14.760279">
                <ele>158.000000</ele>
                <time>2016-10-29T08:46:36Z</time>
            </trkpt>
            <trkpt lon="101.135161" lat="14.759832">
                <ele>164.900000</ele>
                <time>2016-10-29T08:47:42Z</time>
            </trkpt>
            <trkpt lon="101.136281" lat="14.759196">
                <ele>177.900000</ele>
                <time>2016-10-29T08:48:55Z</time>
            </trkpt>
            <trkpt lon="101.136784" lat="14.758944">
                <ele>177.200000</ele>
                <time>2016-10-29T08:49:11Z</time>
            </trkpt>
            <trkpt lon="101.137033" lat="14.758854">
                <ele>174.000000</ele>
                <time>2016-10-29T08:49:18Z</time>
            </trkpt>
            <trkpt lon="101.137731" lat="14.758608">
                <ele>171.300000</ele>
                <time>2016-10-29T08:49:39Z</time>
            </trkpt>
            <trkpt lon="101.138455" lat="14.758619">
                <ele>166.200000</ele>
                <time>2016-10-29T08:50:01Z</time>
            </trkpt>
            <trkpt lon="101.138906" lat="14.758860">
                <ele>160.800000</ele>
                <time>2016-10-29T08:50:18Z</time>
            </trkpt>
            <trkpt lon="101.139478" lat="14.759153">
                <ele>160.400000</ele>
                <time>2016-10-29T08:50:45Z</time>
            </trkpt>
            <trkpt lon="101.140000" lat="14.759009">
                <ele>164.000000</ele>
                <time>2016-10-29T08:51:04Z</time>
            </trkpt>
            <trkpt lon="101.140787" lat="14.758959">
                <ele>168.200000</ele>
                <time>2016-10-29T08:51:29Z</time>
            </trkpt>
            <trkpt lon="101.141626" lat="14.758755">
                <ele>173.800000</ele>
                <time>2016-10-29T08:51:58Z</time>
            </trkpt>
            <trkpt lon="101.142475" lat="14.758721">
                <ele>176.300000</ele>
                <time>2016-10-29T08:52:19Z</time>
            </trkpt>
            <trkpt lon="101.143057" lat="14.758538">
                <ele>184.900000</ele>
                <time>2016-10-29T08:52:50Z</time>
            </trkpt>
            <trkpt lon="101.143143" lat="14.758535">
                <ele>184.700000</ele>
                <time>2016-10-29T08:52:57Z</time>
            </trkpt>
            <trkpt lon="101.144130" lat="14.758071">
                <ele>205.100000</ele>
                <time>2016-10-29T08:55:26Z</time>
            </trkpt>
            <trkpt lon="101.144216" lat="14.758054">
                <ele>205.000000</ele>
                <time>2016-10-29T08:55:31Z</time>
            </trkpt>
            <trkpt lon="101.144595" lat="14.757855">
                <ele>209.900000</ele>
                <time>2016-10-29T08:55:59Z</time>
            </trkpt>
            <trkpt lon="101.145117" lat="14.757345">
                <ele>223.900000</ele>
                <time>2016-10-29T08:56:46Z</time>
            </trkpt>
            <trkpt lon="101.145441" lat="14.757107">
                <ele>227.200000</ele>
                <time>2016-10-29T08:57:13Z</time>
            </trkpt>
            <trkpt lon="101.146096" lat="14.756758">
                <ele>219.600000</ele>
                <time>2016-10-29T08:57:49Z</time>
            </trkpt>
            <trkpt lon="101.146453" lat="14.756147">
                <ele>223.500000</ele>
                <time>2016-10-29T08:58:45Z</time>
            </trkpt>
            <trkpt lon="101.146536" lat="14.755917">
                <ele>223.700000</ele>
                <time>2016-10-29T08:59:02Z</time>
            </trkpt>
            <trkpt lon="101.146470" lat="14.755712">
                <ele>227.900000</ele>
                <time>2016-10-29T08:59:13Z</time>
            </trkpt>
            <trkpt lon="101.146261" lat="14.755306">
                <ele>238.900000</ele>
                <time>2016-10-29T08:59:38Z</time>
            </trkpt>
            <trkpt lon="101.146194" lat="14.755121">
                <ele>243.600000</ele>
                <time>2016-10-29T08:59:50Z</time>
            </trkpt>
            <trkpt lon="101.146206" lat="14.754882">
                <ele>245.600000</ele>
                <time>2016-10-29T09:00:09Z</time>
            </trkpt>
            <trkpt lon="101.146718" lat="14.754506">
                <ele>235.400000</ele>
                <time>2016-10-29T09:00:51Z</time>
            </trkpt>
            <trkpt lon="101.147020" lat="14.754107">
                <ele>231.700000</ele>
                <time>2016-10-29T09:01:19Z</time>
            </trkpt>
            <trkpt lon="101.147403" lat="14.753895">
                <ele>231.400000</ele>
                <time>2016-10-29T09:01:46Z</time>
            </trkpt>
            <trkpt lon="101.147415" lat="14.753080">
                <ele>247.700000</ele>
                <time>2016-10-29T09:02:39Z</time>
            </trkpt>
            <trkpt lon="101.147530" lat="14.752813">
                <ele>250.800000</ele>
                <time>2016-10-29T09:02:59Z</time>
            </trkpt>
            <trkpt lon="101.147964" lat="14.752079">
                <ele>250.700000</ele>
                <time>2016-10-29T09:03:33Z</time>
            </trkpt>
            <trkpt lon="101.148057" lat="14.751864">
                <ele>253.400000</ele>
                <time>2016-10-29T09:03:38Z</time>
            </trkpt>
            <trkpt lon="101.147914" lat="14.751170">
                <ele>268.300000</ele>
                <time>2016-10-29T09:04:08Z</time>
            </trkpt>
            <trkpt lon="101.147968" lat="14.750379">
                <ele>278.500000</ele>
                <time>2016-10-29T09:04:52Z</time>
            </trkpt>
            <trkpt lon="101.148088" lat="14.749825">
                <ele>278.300000</ele>
                <time>2016-10-29T09:05:22Z</time>
            </trkpt>
            <trkpt lon="101.148250" lat="14.749102">
                <ele>269.100000</ele>
                <time>2016-10-29T09:05:49Z</time>
            </trkpt>
            <trkpt lon="101.148098" lat="14.748434">
                <ele>265.500000</ele>
                <time>2016-10-29T09:06:22Z</time>
            </trkpt>
            <trkpt lon="101.147189" lat="14.747952">
                <ele>265.000000</ele>
                <time>2016-10-29T09:07:18Z</time>
            </trkpt>
            <trkpt lon="101.146034" lat="14.748270">
                <ele>277.000000</ele>
                <time>2016-10-29T09:08:22Z</time>
            </trkpt>
            <trkpt lon="101.145364" lat="14.748206">
                <ele>290.100000</ele>
                <time>2016-10-29T09:08:50Z</time>
            </trkpt>
            <trkpt lon="101.144967" lat="14.748178">
                <ele>290.500000</ele>
                <time>2016-10-29T09:09:04Z</time>
            </trkpt>
            <trkpt lon="101.144697" lat="14.748212">
                <ele>289.700000</ele>
                <time>2016-10-29T09:09:11Z</time>
            </trkpt>
            <trkpt lon="101.144467" lat="14.748302">
                <ele>286.000000</ele>
                <time>2016-10-29T09:09:16Z</time>
            </trkpt>
            <trkpt lon="101.143920" lat="14.748505">
                <ele>276.600000</ele>
                <time>2016-10-29T09:09:26Z</time>
            </trkpt>
            <trkpt lon="101.143643" lat="14.748392">
                <ele>276.400000</ele>
                <time>2016-10-29T09:09:32Z</time>
            </trkpt>
            <trkpt lon="101.143509" lat="14.748279">
                <ele>277.900000</ele>
                <time>2016-10-29T09:09:36Z</time>
            </trkpt>
            <trkpt lon="101.143513" lat="14.747164">
                <ele>282.700000</ele>
                <time>2016-10-29T09:10:28Z</time>
            </trkpt>
            <trkpt lon="101.143937" lat="14.746192">
                <ele>280.200000</ele>
                <time>2016-10-29T09:11:25Z</time>
            </trkpt>
            <trkpt lon="101.144028" lat="14.746075">
                <ele>277.800000</ele>
                <time>2016-10-29T09:11:28Z</time>
            </trkpt>
            <trkpt lon="101.144146" lat="14.745729">
                <ele>273.500000</ele>
                <time>2016-10-29T09:11:35Z</time>
            </trkpt>
            <trkpt lon="101.143803" lat="14.745019">
                <ele>274.800000</ele>
                <time>2016-10-29T09:12:00Z</time>
            </trkpt>
            <trkpt lon="101.144138" lat="14.744608">
                <ele>280.300000</ele>
                <time>2016-10-29T09:12:22Z</time>
            </trkpt>
            <trkpt lon="101.144773" lat="14.744012">
                <ele>284.200000</ele>
                <time>2016-10-29T09:13:38Z</time>
            </trkpt>
            <trkpt lon="101.145608" lat="14.742976">
                <ele>275.500000</ele>
                <time>2016-10-29T09:16:21Z</time>
            </trkpt>
            <trkpt lon="101.145688" lat="14.742604">
                <ele>272.900000</ele>
                <time>2016-10-29T09:16:43Z</time>
            </trkpt>
            <trkpt lon="101.145542" lat="14.742182">
                <ele>270.700000</ele>
                <time>2016-10-29T09:17:51Z</time>
            </trkpt>
            <trkpt lon="101.146849" lat="14.742255">
                <ele>275.700000</ele>
                <time>2016-10-29T09:18:57Z</time>
            </trkpt>
            <trkpt lon="101.147769" lat="14.741958">
                <ele>286.200000</ele>
                <time>2016-10-29T09:19:47Z</time>
            </trkpt>
            <trkpt lon="101.148213" lat="14.742004">
                <ele>288.700000</ele>
                <time>2016-10-29T09:20:14Z</time>
            </trkpt>
            <trkpt lon="101.148788" lat="14.741905">
                <ele>292.500000</ele>
                <time>2016-10-29T09:20:50Z</time>
            </trkpt>
            <trkpt lon="101.149206" lat="14.741548">
                <ele>299.700000</ele>
                <time>2016-10-29T09:23:41Z</time>
            </trkpt>
            <trkpt lon="101.149722" lat="14.741177">
                <ele>305.400000</ele>
                <time>2016-10-29T09:24:06Z</time>
            </trkpt>
            <trkpt lon="101.150058" lat="14.740813">
                <ele>307.800000</ele>
                <time>2016-10-29T09:24:15Z</time>
            </trkpt>
            <trkpt lon="101.149974" lat="14.737619">
                <ele>317.300000</ele>
                <time>2016-10-29T09:25:49Z</time>
            </trkpt>
            <trkpt lon="101.150761" lat="14.737640">
                <ele>317.400000</ele>
                <time>2016-10-29T09:26:27Z</time>
            </trkpt>
            <trkpt lon="101.151302" lat="14.736891">
                <ele>320.300000</ele>
                <time>2016-10-29T09:27:06Z</time>
            </trkpt>
            <trkpt lon="101.151722" lat="14.736439">
                <ele>321.500000</ele>
                <time>2016-10-29T09:27:30Z</time>
            </trkpt>
            <trkpt lon="101.151962" lat="14.736289">
                <ele>321.800000</ele>
                <time>2016-10-29T09:27:40Z</time>
            </trkpt>
            <trkpt lon="101.153561" lat="14.734734">
                <ele>331.900000</ele>
                <time>2016-10-29T09:29:07Z</time>
            </trkpt>
            <trkpt lon="101.153597" lat="14.734632">
                <ele>332.300000</ele>
                <time>2016-10-29T09:29:11Z</time>
            </trkpt>
            <trkpt lon="101.153965" lat="14.733640">
                <ele>335.200000</ele>
                <time>2016-10-29T09:29:48Z</time>
            </trkpt>
            <trkpt lon="101.154361" lat="14.733127">
                <ele>338.700000</ele>
                <time>2016-10-29T09:30:14Z</time>
            </trkpt>
            <trkpt lon="101.154904" lat="14.732742">
                <ele>342.000000</ele>
                <time>2016-10-29T09:30:50Z</time>
            </trkpt>
            <trkpt lon="101.155020" lat="14.732651">
                <ele>342.500000</ele>
                <time>2016-10-29T09:30:57Z</time>
            </trkpt>
            <trkpt lon="101.155465" lat="14.732300">
                <ele>343.500000</ele>
                <time>2016-10-29T09:31:24Z</time>
            </trkpt>
            <trkpt lon="101.156447" lat="14.731857">
                <ele>346.300000</ele>
                <time>2016-10-29T09:32:07Z</time>
            </trkpt>
            <trkpt lon="101.156858" lat="14.731814">
                <ele>347.600000</ele>
                <time>2016-10-29T09:32:21Z</time>
            </trkpt>
            <trkpt lon="101.157074" lat="14.731622">
                <ele>347.900000</ele>
                <time>2016-10-29T09:33:25Z</time>
            </trkpt>
            <trkpt lon="101.157097" lat="14.731083">
                <ele>346.500000</ele>
                <time>2016-10-29T09:33:38Z</time>
            </trkpt>
            <trkpt lon="101.157095" lat="14.730505">
                <ele>344.400000</ele>
                <time>2016-10-29T09:33:49Z</time>
            </trkpt>
            <trkpt lon="101.157128" lat="14.727535">
                <ele>356.600000</ele>
                <time>2016-10-29T09:35:03Z</time>
            </trkpt>
            <trkpt lon="101.157333" lat="14.726091">
                <ele>361.100000</ele>
                <time>2016-10-29T09:35:37Z</time>
            </trkpt>
            <trkpt lon="101.157608" lat="14.725820">
                <ele>365.700000</ele>
                <time>2016-10-29T09:35:43Z</time>
            </trkpt>
            <trkpt lon="101.158147" lat="14.725680">
                <ele>363.900000</ele>
                <time>2016-10-29T09:35:50Z</time>
            </trkpt>
            <trkpt lon="101.158907" lat="14.725552">
                <ele>350.500000</ele>
                <time>2016-10-29T09:35:57Z</time>
            </trkpt>
            <trkpt lon="101.159564" lat="14.725445">
                <ele>345.100000</ele>
                <time>2016-10-29T09:36:02Z</time>
            </trkpt>
            <trkpt lon="101.164082" lat="14.724778">
                <ele>313.800000</ele>
                <time>2016-10-29T09:36:38Z</time>
            </trkpt>
            <trkpt lon="101.164495" lat="14.725406">
                <ele>304.100000</ele>
                <time>2016-10-29T09:36:52Z</time>
            </trkpt>
            <trkpt lon="101.165209" lat="14.725866">
                <ele>303.200000</ele>
                <time>2016-10-29T09:37:05Z</time>
            </trkpt>
            <trkpt lon="101.165724" lat="14.726236">
                <ele>300.000000</ele>
                <time>2016-10-29T09:37:15Z</time>
            </trkpt>
            <trkpt lon="101.166210" lat="14.726808">
                <ele>299.400000</ele>
                <time>2016-10-29T09:37:40Z</time>
            </trkpt>
            <trkpt lon="101.166344" lat="14.726935">
                <ele>300.100000</ele>
                <time>2016-10-29T09:37:48Z</time>
            </trkpt>
            <trkpt lon="101.168746" lat="14.728443">
                <ele>315.800000</ele>
                <time>2016-10-29T09:39:38Z</time>
            </trkpt>
            <trkpt lon="101.169301" lat="14.728594">
                <ele>317.300000</ele>
                <time>2016-10-29T09:39:52Z</time>
            </trkpt>
            <trkpt lon="101.170032" lat="14.728826">
                <ele>316.200000</ele>
                <time>2016-10-29T09:40:12Z</time>
            </trkpt>
            <trkpt lon="101.170542" lat="14.729937">
                <ele>319.900000</ele>
                <time>2016-10-29T09:40:49Z</time>
            </trkpt>
            <trkpt lon="101.170783" lat="14.730889">
                <ele>325.500000</ele>
                <time>2016-10-29T09:41:25Z</time>
            </trkpt>
            <trkpt lon="101.170709" lat="14.731412">
                <ele>328.800000</ele>
                <time>2016-10-29T09:41:46Z</time>
            </trkpt>
            <trkpt lon="101.170485" lat="14.731653">
                <ele>328.500000</ele>
                <time>2016-10-29T09:41:57Z</time>
            </trkpt>
            <trkpt lon="101.170092" lat="14.732868">
                <ele>336.100000</ele>
                <time>2016-10-29T09:42:46Z</time>
            </trkpt>
            <trkpt lon="101.169798" lat="14.733328">
                <ele>337.400000</ele>
                <time>2016-10-29T09:43:06Z</time>
            </trkpt>
            <trkpt lon="101.169710" lat="14.734042">
                <ele>338.300000</ele>
                <time>2016-10-29T09:43:33Z</time>
            </trkpt>
            <trkpt lon="101.170428" lat="14.735940">
                <ele>353.900000</ele>
                <time>2016-10-29T09:45:18Z</time>
            </trkpt>
            <trkpt lon="101.170730" lat="14.736366">
                <ele>362.100000</ele>
                <time>2016-10-29T09:45:32Z</time>
            </trkpt>
            <trkpt lon="101.170930" lat="14.736461">
                <ele>362.300000</ele>
                <time>2016-10-29T09:45:40Z</time>
            </trkpt>
            <trkpt lon="101.172055" lat="14.736638">
                <ele>348.700000</ele>
                <time>2016-10-29T09:46:19Z</time>
            </trkpt>
            <trkpt lon="101.172857" lat="14.737017">
                <ele>343.100000</ele>
                <time>2016-10-29T09:46:42Z</time>
            </trkpt>
            <trkpt lon="101.173002" lat="14.736852">
                <ele>345.600000</ele>
                <time>2016-10-29T09:46:54Z</time>
            </trkpt>
            <trkpt lon="101.173461" lat="14.736832">
                <ele>346.100000</ele>
                <time>2016-10-29T09:47:13Z</time>
            </trkpt>
            <trkpt lon="101.173842" lat="14.736711">
                <ele>347.200000</ele>
                <time>2016-10-29T09:47:24Z</time>
            </trkpt>
            <trkpt lon="101.174112" lat="14.736646">
                <ele>343.900000</ele>
                <time>2016-10-29T09:47:32Z</time>
            </trkpt>
            <trkpt lon="101.174141" lat="14.736187">
                <ele>346.900000</ele>
                <time>2016-10-29T09:47:51Z</time>
            </trkpt>
            <trkpt lon="101.174221" lat="14.735960">
                <ele>343.500000</ele>
                <time>2016-10-29T09:47:59Z</time>
            </trkpt>
            <trkpt lon="101.174566" lat="14.735887">
                <ele>333.700000</ele>
                <time>2016-10-29T09:48:08Z</time>
            </trkpt>
            <trkpt lon="101.175125" lat="14.735668">
                <ele>330.600000</ele>
                <time>2016-10-29T09:48:20Z</time>
            </trkpt>
            <trkpt lon="101.175520" lat="14.735413">
                <ele>328.300000</ele>
                <time>2016-10-29T09:48:32Z</time>
            </trkpt>
            <trkpt lon="101.176157" lat="14.734801">
                <ele>315.300000</ele>
                <time>2016-10-29T09:48:55Z</time>
            </trkpt>
            <trkpt lon="101.176312" lat="14.734559">
                <ele>310.500000</ele>
                <time>2016-10-29T09:49:06Z</time>
            </trkpt>
            <trkpt lon="101.176923" lat="14.734216">
                <ele>295.200000</ele>
                <time>2016-10-29T09:49:30Z</time>
            </trkpt>
            <trkpt lon="101.177521" lat="14.734451">
                <ele>296.200000</ele>
                <time>2016-10-29T09:49:47Z</time>
            </trkpt>
            <trkpt lon="101.178042" lat="14.734994">
                <ele>306.700000</ele>
                <time>2016-10-29T09:50:15Z</time>
            </trkpt>
            <trkpt lon="101.178398" lat="14.735342">
                <ele>307.000000</ele>
                <time>2016-10-29T09:50:38Z</time>
            </trkpt>
            <trkpt lon="101.179040" lat="14.735036">
                <ele>308.100000</ele>
                <time>2016-10-29T09:51:03Z</time>
            </trkpt>
            <trkpt lon="101.179370" lat="14.734835">
                <ele>312.100000</ele>
                <time>2016-10-29T09:51:11Z</time>
            </trkpt>
            <trkpt lon="101.179558" lat="14.734626">
                <ele>318.500000</ele>
                <time>2016-10-29T09:51:16Z</time>
            </trkpt>
            <trkpt lon="101.180433" lat="14.733840">
                <ele>300.200000</ele>
                <time>2016-10-29T09:51:34Z</time>
            </trkpt>
            <trkpt lon="101.181213" lat="14.733712">
                <ele>293.300000</ele>
                <time>2016-10-29T09:51:50Z</time>
            </trkpt>
            <trkpt lon="101.181912" lat="14.733311">
                <ele>279.400000</ele>
                <time>2016-10-29T09:52:02Z</time>
            </trkpt>
            <trkpt lon="101.182335" lat="14.732646">
                <ele>268.400000</ele>
                <time>2016-10-29T09:52:18Z</time>
            </trkpt>
            <trkpt lon="101.182461" lat="14.732214">
                <ele>259.300000</ele>
                <time>2016-10-29T09:52:26Z</time>
            </trkpt>
            <trkpt lon="101.181870" lat="14.731171">
                <ele>278.300000</ele>
                <time>2016-10-29T09:52:45Z</time>
            </trkpt>
            <trkpt lon="101.182089" lat="14.730686">
                <ele>288.400000</ele>
                <time>2016-10-29T09:52:53Z</time>
            </trkpt>
            <trkpt lon="101.182184" lat="14.730319">
                <ele>294.100000</ele>
                <time>2016-10-29T09:52:59Z</time>
            </trkpt>
            <trkpt lon="101.182490" lat="14.729981">
                <ele>286.300000</ele>
                <time>2016-10-29T09:53:07Z</time>
            </trkpt>
            <trkpt lon="101.182854" lat="14.730369">
                <ele>269.800000</ele>
                <time>2016-10-29T09:53:18Z</time>
            </trkpt>
            <trkpt lon="101.183217" lat="14.730413">
                <ele>261.600000</ele>
                <time>2016-10-29T09:53:23Z</time>
            </trkpt>
            <trkpt lon="101.183720" lat="14.730000">
                <ele>253.700000</ele>
                <time>2016-10-29T09:53:34Z</time>
            </trkpt>
            <trkpt lon="101.183762" lat="14.729721">
                <ele>253.400000</ele>
                <time>2016-10-29T09:53:39Z</time>
            </trkpt>
            <trkpt lon="101.184004" lat="14.729384">
                <ele>244.500000</ele>
                <time>2016-10-29T09:53:48Z</time>
            </trkpt>
            <trkpt lon="101.184134" lat="14.728227">
                <ele>232.900000</ele>
                <time>2016-10-29T09:54:14Z</time>
            </trkpt>
            <trkpt lon="101.184257" lat="14.727939">
                <ele>228.800000</ele>
                <time>2016-10-29T09:54:16Z</time>
            </trkpt>
            <trkpt lon="101.184471" lat="14.727563">
                <ele>217.500000</ele>
                <time>2016-10-29T09:54:21Z</time>
            </trkpt>
            <trkpt lon="101.184579" lat="14.726235">
                <ele>206.900000</ele>
                <time>2016-10-29T09:54:39Z</time>
            </trkpt>
            <trkpt lon="101.184559" lat="14.725925">
                <ele>201.800000</ele>
                <time>2016-10-29T09:54:43Z</time>
            </trkpt>
            <trkpt lon="101.184058" lat="14.724850">
                <ele>202.400000</ele>
                <time>2016-10-29T09:54:58Z</time>
            </trkpt>
            <trkpt lon="101.183923" lat="14.723901">
                <ele>192.500000</ele>
                <time>2016-10-29T09:55:14Z</time>
            </trkpt>
            <trkpt lon="101.184299" lat="14.723656">
                <ele>188.000000</ele>
                <time>2016-10-29T09:55:25Z</time>
            </trkpt>
            <trkpt lon="101.184157" lat="14.722866">
                <ele>188.900000</ele>
                <time>2016-10-29T09:55:40Z</time>
            </trkpt>
            <trkpt lon="101.184099" lat="14.722761">
                <ele>189.100000</ele>
                <time>2016-10-29T09:55:43Z</time>
            </trkpt>
            <trkpt lon="101.184116" lat="14.722637">
                <ele>188.400000</ele>
                <time>2016-10-29T09:55:46Z</time>
            </trkpt>
            <trkpt lon="101.184634" lat="14.722332">
                <ele>181.700000</ele>
                <time>2016-10-29T09:55:54Z</time>
            </trkpt>
            <trkpt lon="101.186411" lat="14.719004">
                <ele>183.900000</ele>
                <time>2016-10-29T09:57:22Z</time>
            </trkpt>
            <trkpt lon="101.186610" lat="14.718452">
                <ele>183.800000</ele>
                <time>2016-10-29T09:57:40Z</time>
            </trkpt>
            <trkpt lon="101.186780" lat="14.716200">
                <ele>194.000000</ele>
                <time>2016-10-29T09:58:32Z</time>
            </trkpt>
            <trkpt lon="101.187033" lat="14.715412">
                <ele>206.100000</ele>
                <time>2016-10-29T09:58:49Z</time>
            </trkpt>
            <trkpt lon="101.187192" lat="14.714564">
                <ele>209.300000</ele>
                <time>2016-10-29T09:59:06Z</time>
            </trkpt>
            <trkpt lon="101.186861" lat="14.713002">
                <ele>195.500000</ele>
                <time>2016-10-29T09:59:43Z</time>
            </trkpt>
            <trkpt lon="101.186024" lat="14.711512">
                <ele>191.900000</ele>
                <time>2016-10-29T10:00:15Z</time>
            </trkpt>
            <trkpt lon="101.185330" lat="14.710523">
                <ele>186.700000</ele>
                <time>2016-10-29T10:00:36Z</time>
            </trkpt>
            <trkpt lon="101.185292" lat="14.709970">
                <ele>185.400000</ele>
                <time>2016-10-29T10:00:46Z</time>
            </trkpt>
            <trkpt lon="101.185442" lat="14.709736">
                <ele>185.300000</ele>
                <time>2016-10-29T10:00:51Z</time>
            </trkpt>
            <trkpt lon="101.185938" lat="14.709356">
                <ele>187.200000</ele>
                <time>2016-10-29T10:01:04Z</time>
            </trkpt>
            <trkpt lon="101.187094" lat="14.708499">
                <ele>188.600000</ele>
                <time>2016-10-29T10:01:35Z</time>
            </trkpt>
            <trkpt lon="101.190876" lat="14.705610">
                <ele>188.500000</ele>
                <time>2016-10-29T10:03:06Z</time>
            </trkpt>
            <trkpt lon="101.191028" lat="14.705698">
                <ele>189.100000</ele>
                <time>2016-10-29T10:03:11Z</time>
            </trkpt>
            <trkpt lon="101.191168" lat="14.706098">
                <ele>190.400000</ele>
                <time>2016-10-29T10:03:19Z</time>
            </trkpt>
        </trkseg>
    </trk>
</gpx>